Latest Weather Observations for Wilcannia Airport

IDN60801

Issued at 12:35 pm EST Thursday 28 August 2014 (issued every 30 minutes, with the page automatically refreshed every 10 minutes)

About weather observations | Map of weather stations | Latest weather observations for NSW | Other Formats
Station Details ID: 046012 Name: WILCANNIA AERODROME AWS Lat: -31.52 Lon: 143.38 Height: 94.3 m
Data from the previous 72 hours. | See also: Recent months for locations in New South Wales
Date/Time
EST
Temp
°C
App
Temp
°C
Dew
Point
Rel
Hum
%
Delta-T
°C
Wind Press
QNH
hPa
Press
MSL
hPa
Rain
since 9 am
mm
Dir
 
Spd
km/h
Gust
km/h
Spd
kts
Gust
kts
28/12:30pm 21.0 14.8 2.3 29 8.7 ESE 24 37 13 20 1027.2 - 0.0
28/12:00pm 20.6 14.8 2.4 30 8.5 SE 22 35 12 19 1027.8 1027.8 0.0
28/11:30am 20.8 15.4 2.6 30 8.6 ESE 20 28 11 15 1028.1 - 0.0
28/11:00am 20.3 15.0 1.7 29 8.5 ESE 19 28 10 15 1028.3 1028.3 0.0
28/10:30am 20.1 15.0 3.3 33 7.9 E 19 24 10 13 1028.4 - 0.0
28/10:00am 18.3 13.5 4.5 40 6.6 ESE 19 26 10 14 1028.5 1028.5 0.0
28/09:30am 17.1 12.8 5.4 46 5.7 ESE 17 22 9 12 1028.5 - 0.0
28/09:00am 15.0 11.4 5.2 52 4.6 SE 13 19 7 10 1028.3 1028.3 0.0
28/08:30am 13.4 9.8 4.8 56 4.0 SE 13 17 7 9 1028.0 - 0.0
28/08:00am 11.2 8.1 5.5 68 2.6 SSE 11 15 6 8 1027.8 1027.8 0.0
28/07:30am 7.9 4.8 5.4 84 1.1 S 11 13 6 7 1027.4 - 0.0
28/07:00am 5.2 1.6 3.2 87 0.8 S 11 13 6 7 1027.2 1027.2 0.0
28/06:30am 5.5 2.3 3.3 86 0.9 SSW 9 11 5 6 1026.8 - 0.0
28/06:00am 6.2 3.5 3.5 83 1.1 S 7 9 4 5 1026.4 1026.4 0.0
28/05:30am 7.8 3.7 4.2 78 1.6 SSE 15 17 8 9 1026.2 - 0.0
28/05:00am 7.8 3.7 4.2 78 1.6 SSE 15 17 8 9 1025.9 1025.9 0.0
28/04:30am 6.3 2.8 3.6 83 1.1 S 11 13 6 7 1025.7 - 0.0
28/04:00am 6.9 3.9 4.2 83 1.2 S 9 11 5 6 1025.6 1025.6 0.0
28/03:30am 7.0 4.2 3.3 77 1.6 S 7 9 4 5 1025.5 - 0.0
28/03:00am 7.4 3.9 3.6 77 1.6 SSE 11 11 6 6 1025.6 1025.6 0.0
28/02:30am 8.3 5.2 3.6 72 2.0 SSE 9 11 5 6 1025.9 - 0.0
28/02:00am 10.4 7.1 4.3 66 2.7 SSE 11 15 6 8 1026.0 1026.0 0.0
28/01:30am 11.1 7.5 4.8 65 2.9 SSE 13 15 7 8 1026.1 - 0.0
28/01:00am 11.4 7.8 4.8 64 3.0 SSE 13 15 7 8 1026.0 1026.0 0.0
28/12:30am 11.9 8.4 5.3 64 3.1 SSE 13 15 7 8 1026.0 - 0.0
28/12:00am 12.2 8.3 5.4 63 3.1 SE 15 17 8 9 1025.7 1025.7 0.0
 
Date/Time
EST
Temp
°C
App
Temp
°C
Dew
Point
Rel
Hum
%
Delta-T
°C
Wind Press
QNH
hPa
Press
MSL
hPa
Rain
since 9 am
mm
Dir
 
Spd
km/h
Gust
km/h
Spd
kts
Gust
kts
27/11:30pm 12.9 9.4 5.6 61 3.4 SE 13 15 7 8 1025.8 - 0.0
27/11:00pm 13.5 10.1 5.9 60 3.6 SSE 13 15 7 8 1025.7 1025.7 0.0
27/10:30pm 13.0 9.6 6.1 63 3.3 SSE 13 17 7 9 1025.4 - 0.0
27/10:00pm 13.4 10.1 6.5 63 3.3 SSE 13 15 7 8 1025.3 1025.3 0.0
27/09:30pm 13.7 10.4 6.3 61 3.6 S 13 15 7 8 1025.1 - 0.0
27/09:00pm 14.2 10.9 6.3 59 3.8 S 13 15 7 8 1025.0 1025.0 0.0
27/08:30pm 14.5 11.2 6.3 58 4.0 S 13 13 7 7 1024.9 - 0.0
27/08:00pm 14.9 11.6 6.5 57 4.1 S 13 13 7 7 1024.8 1024.8 0.0
27/07:30pm 15.2 12.2 6.2 55 4.4 S 11 11 6 6 1024.6 - 0.0
27/07:00pm 16.1 12.8 6.3 52 4.8 S 13 15 7 8 1024.3 1024.3 0.0
27/06:30pm 17.6 14.6 6.2 47 5.6 SSE 11 13 6 7 1024.0 - 0.0
27/06:00pm 19.4 15.7 6.2 42 6.6 SSE 15 20 8 11 1023.7 1023.8 0.0
27/05:30pm 20.5 16.4 6.1 39 7.2 SE 17 24 9 13 1023.4 - 0.0
27/05:00pm 21.3 16.6 6.0 37 7.7 SSE 20 28 11 15 1023.2 1023.3 0.0
27/04:30pm 21.9 17.2 6.2 36 8.0 SSE 20 30 11 16 1023.0 - 0.0
27/04:00pm 21.9 17.1 5.8 35 8.1 SSE 20 30 11 16 1023.0 1023.1 0.0
27/03:30pm 21.9 16.8 6.2 36 8.0 S 22 33 12 18 1022.8 - 0.0
27/03:00pm 22.4 17.3 6.2 35 8.2 SSE 22 33 12 18 1022.9 1023.0 0.0
27/02:30pm 22.0 16.9 5.8 35 8.2 SSE 22 33 12 18 1023.0 - 0.0
27/02:00pm 21.9 18.0 7.0 38 7.6 SSE 17 26 9 14 1023.1 1023.2 0.0
27/01:30pm 22.3 18.7 6.9 37 7.9 SSE 15 24 8 13 1023.3 - 0.0
27/01:00pm 21.2 16.9 7.1 40 7.2 S 19 28 10 15 1023.6 1023.7 0.0
27/12:30pm 20.8 17.7 7.4 42 6.9 SSE 13 22 7 12 1024.2 - 0.0
27/12:00pm 19.9 16.9 7.6 45 6.3 SSE 13 20 7 11 1024.4 1024.4 0.0
27/11:30am 19.3 16.3 7.7 47 6.0 ESE 13 20 7 11 1024.8 - 0.0
27/11:00am 18.7 15.4 8.1 50 5.4 ESE 15 20 8 11 1025.2 1025.2 0.0
27/10:30am 18.8 15.8 9.3 54 5.0 ESE 15 22 8 12 1025.2 - 0.0
27/10:00am 16.9 13.4 8.8 59 4.2 ESE 17 22 9 12 1024.9 1024.9 0.0
27/09:30am 15.5 11.9 8.5 63 3.6 ESE 17 24 9 13 1024.9 - 0.0
27/09:00am 14.2 10.2 8.2 67 3.0 ESE 19 24 10 13 1024.8 1024.8 0.0
27/08:30am 12.5 8.3 7.6 72 2.4 SE 19 24 10 13 1024.6 - 0.0
27/08:00am 10.9 6.7 7.4 79 1.7 SSE 19 24 10 13 1024.4 1024.4 0.0
27/07:30am 9.2 6.6 7.8 91 0.7 SSE 11 20 6 11 1023.6 - 0.0
27/07:00am 6.8 4.4 5.1 89 0.7 S 7 13 4 7 1023.2 1023.3 0.0
27/06:30am 7.3 4.6 5.6 89 0.8 SSE 9 13 5 7 1022.9 - 0.0
27/06:00am 7.0 3.8 5.2 88 0.8 S 11 13 6 7 1022.5 1022.6 0.0
27/05:30am 7.6 4.9 5.4 86 1.0 S 9 11 5 6 1022.4 - 0.0
27/05:00am 8.0 5.4 6.0 87 0.9 S 9 13 5 7 1022.4 1022.5 0.0
27/04:30am 8.3 5.3 6.1 86 1.0 S 11 15 6 8 1022.3 - 0.0
27/04:00am 7.7 4.9 5.3 85 1.1 SSW 9 15 5 8 1022.2 1022.3 0.0
27/03:30am 8.0 4.4 5.1 82 1.3 SSW 13 17 7 9 1022.1 - 0.0
27/03:00am 7.5 4.5 4.3 80 1.4 SW 9 11 5 6 1022.1 1022.2 0.0
27/02:30am 8.5 5.5 4.3 75 1.8 SSW 9 11 5 6 1022.2 - 0.0
27/02:00am 10.6 7.6 5.8 72 2.2 S 11 15 6 8 1022.2 1022.3 0.0
27/01:30am 11.0 7.9 5.5 69 2.5 S 11 13 6 7 1022.4 - 0.0
27/01:00am 11.5 8.0 5.6 67 2.7 S 13 15 7 8 1022.6 1022.7 0.0
27/12:30am 11.9 8.4 5.3 64 3.1 S 13 17 7 9 1022.8 - 0.0
27/12:00am 11.7 8.2 5.6 66 2.8 S 13 19 7 10 1023.1 1023.2 0.0
 
Date/Time
EST
Temp
°C
App
Temp
°C
Dew
Point
Rel
Hum
%
Delta-T
°C
Wind Press
QNH
hPa
Press
MSL
hPa
Rain
since 9 am
mm
Dir
 
Spd
km/h
Gust
km/h
Spd
kts
Gust
kts
26/11:30pm 10.2 6.7 5.4 72 2.2 SSW 13 17 7 9 1023.1 - 0.0
26/11:00pm 9.8 6.6 5.2 73 2.1 SW 11 13 6 7 1023.0 1023.1 0.0
26/10:30pm 10.0 6.5 5.4 73 2.1 SW 13 15 7 8 1023.1 - 0.0
26/10:00pm 10.4 6.9 5.6 72 2.2 SW 13 15 7 8 1023.1 1023.2 0.0
26/09:30pm 10.7 7.3 5.7 71 2.3 SW 13 13 7 7 1023.2 - 0.0
26/09:00pm 11.2 7.8 5.7 69 2.5 SW 13 15 7 8 1023.1 1023.2 0.0
26/08:30pm 11.6 8.2 5.7 67 2.8 SW 13 13 7 7 1023.0 - 0.0
26/08:00pm 12.1 8.7 5.7 65 3.0 SW 13 15 7 8 1022.9 1023.0 0.0
26/07:30pm 13.0 9.6 5.7 61 3.4 SSW 13 13 7 7 1022.7 - 0.0
26/07:00pm 13.8 10.6 5.2 56 4.0 SSW 11 13 6 7 1022.3 1022.4 0.0
26/06:30pm 15.7 12.5 5.3 50 5.0 S 11 15 6 8 1022.0 - 0.0
26/06:00pm 17.6 13.3 5.2 44 6.0 S 17 22 9 12 1021.5 1021.6 0.0
26/05:30pm 18.7 13.8 5.2 41 6.6 SSE 20 28 11 15 1021.3 - 0.0
26/05:00pm 19.4 14.8 5.5 40 6.8 S 19 26 10 14 1021.2 1021.3 0.0
26/04:30pm 19.7 14.9 5.7 40 6.9 SSE 20 30 11 16 1021.2 - 0.0
26/04:00pm 20.3 15.7 6.3 40 7.0 SSE 20 28 11 15 1021.2 1021.3 0.0
26/03:30pm 19.8 14.6 5.5 39 7.1 S 22 35 12 19 1021.2 - 0.0
26/03:00pm 19.5 14.5 4.8 38 7.1 SSW 20 24 11 13 1021.2 1021.3 0.0
26/02:30pm 19.6 14.7 5.3 39 7.0 SSE 20 28 11 15 1021.5 - 0.0
26/02:00pm 19.6 14.4 5.6 40 6.9 SSE 22 35 12 19 1022.0 1022.1 0.0
26/01:30pm 18.7 13.4 4.8 40 6.7 S 22 33 12 18 1022.4 - 0.0
26/01:00pm 18.4 12.5 5.9 44 6.1 SSE 26 37 14 20 1022.7 1022.8 0.0
26/12:30pm 17.6 12.0 5.5 45 5.9 SSE 24 33 13 18 1023.3 - 0.0
26/12:00pm 16.9 12.3 6.4 50 5.1 S 20 28 11 15 1023.6 1023.7 0.0
26/11:30am 15.8 11.4 7.6 58 4.1 S 20 28 11 15 1024.3 - 0.0
26/11:00am 14.6 10.9 8.1 65 3.2 S 17 24 9 13 1024.7 1024.7 0.0
26/10:30am 13.8 10.6 8.6 71 2.6 S 15 20 8 11 1024.9 - 0.0
26/10:00am 11.7 7.5 7.6 76 2.0 S 19 26 10 14 1025.1 1025.1 0.0
26/09:30am 11.0 6.8 7.5 79 1.7 S 19 24 10 13 1025.2 - 0.0
26/09:00am 10.6 6.1 6.9 78 1.7 S 20 26 11 14 1025.3 1025.3 0.0
26/08:30am 10.1 6.6 7.3 83 1.3 SSW 15 19 8 10 1025.0 - 0.0
26/08:00am 8.4 4.7 6.5 88 0.9 SSW 15 19 8 10 1024.9 1024.9 0.0
26/07:30am 6.1 2.5 4.9 92 0.5 SW 13 15 7 8 1024.5 - 0.0
26/07:00am 4.6 1.1 3.3 91 0.5 SW 11 13 6 7 1024.3 1024.3 0.0
26/06:30am 4.8 0.9 3.3 90 0.6 SW 13 15 7 8 1024.0 - 0.0
26/06:00am 4.9 1.3 3.2 89 0.7 SW 11 13 6 7 1023.5 1023.6 0.0
26/05:30am 4.9 0.9 3.1 88 0.7 SSW 13 15 7 8 1023.3 - 0.0
26/05:00am 5.0 1.1 3.2 88 0.7 SSW 13 15 7 8 1023.1 1023.2 0.0
26/04:30am 5.2 1.2 3.1 86 0.9 SW 13 15 7 8 1023.0 - 0.0
26/04:00am 5.4 1.4 2.9 84 1.0 SW 13 13 7 7 1023.0 1023.1 0.0
26/03:30am 6.3 2.4 3.5 82 1.2 SW 13 15 7 8 1023.1 - 0.0
26/03:00am 6.4 2.5 3.6 82 1.2 WSW 13 15 7 8 1023.2 1023.3 0.0
26/02:30am 6.5 3.0 3.5 81 1.3 WSW 11 13 6 7 1023.5 - 0.0
26/02:00am 6.4 2.8 3.0 79 1.4 SW 11 13 6 7 1024.0 1024.0 0.0
26/01:30am 6.7 3.1 3.0 77 1.6 SW 11 13 6 7 1024.2 - 0.0
26/01:00am 7.2 3.3 3.3 76 1.6 WSW 13 15 7 8 1024.4 1024.4 0.0
26/12:30am 7.3 3.4 3.2 75 1.7 WSW 13 15 7 8 1024.4 - 0.0
26/12:00am 7.5 3.6 3.2 74 1.8 WSW 13 15 7 8 1024.5 1024.5 0.0
 
Date/Time
EST
Temp
°C
App
Temp
°C
Dew
Point
Rel
Hum
%
Delta-T
°C
Wind Press
QNH
hPa
Press
MSL
hPa
Rain
since 9 am
mm
Dir
 
Spd
km/h
Gust
km/h
Spd
kts
Gust
kts
25/11:30pm 7.5 3.5 3.0 73 1.9 WSW 13 15 7 8 1024.5 - 0.0
25/11:00pm 7.5 3.5 2.8 72 2.0 WSW 13 13 7 7 1024.8 1024.8 0.0
25/10:30pm 8.0 4.0 2.7 69 2.2 WSW 13 13 7 7 1025.0 - 0.0
25/10:00pm 8.4 4.8 2.8 68 2.4 WSW 11 13 6 7 1025.2 1025.2 0.0
25/09:30pm 8.6 4.6 3.0 68 2.4 SW 13 15 7 8 1025.5 - 0.0
25/09:00pm 8.7 4.7 2.9 67 2.5 SW 13 13 7 7 1025.5 1025.5 0.0
25/08:30pm 9.4 5.4 2.9 64 2.8 WSW 13 15 7 8 1025.7 - 0.0
25/08:00pm 9.5 5.7 1.9 59 3.2 W 11 13 6 7 1025.6 1025.6 0.0
25/07:30pm 10.6 7.1 1.2 52 3.9 WSW 9 13 5 7 1025.5 - 0.0
25/07:00pm 11.8 7.4 0.6 46 4.6 SSW 13 15 7 8 1025.3 1025.3 0.0
25/06:30pm 13.3 9.0 0.7 42 5.3 SSW 13 17 7 9 1025.2 - 0.0
25/06:00pm 15.3 9.6 -0.4 34 6.6 SSW 19 24 10 13 1025.0 1025.0 0.0
25/05:30pm 16.9 11.7 0.1 32 7.3 SW 17 24 9 13 1025.0 - 0.0
25/05:00pm 17.6 11.4 -0.2 30 7.7 SW 22 33 12 18 1024.8 1024.8 0.0
25/04:30pm 18.0 11.3 -0.8 28 8.1 SSW 24 32 13 17 1024.8 - 0.0
25/04:00pm 18.5 12.4 0.6 30 7.9 SSW 22 32 12 17 1024.9 1024.9 0.0
25/03:30pm 18.5 12.8 0.6 30 7.9 SSW 20 33 11 18 1025.1 - 0.0
25/03:00pm 18.5 12.5 1.1 31 7.7 SW 22 32 12 17 1025.3 1025.3 0.0
25/02:30pm 18.6 13.1 2.0 33 7.6 SW 20 32 11 17 1025.6 - 0.0
25/02:00pm 18.3 12.9 2.2 34 7.3 SSW 20 32 11 17 1026.0 1026.0 0.0
25/01:30pm 17.6 11.9 2.8 37 6.8 SSW 22 32 12 17 1026.5 - 0.0
25/01:00pm 17.4 12.4 4.4 42 6.1 SSW 20 32 11 17 1027.3 1027.3 0.0

Other Formats:

Comma delimited format used in spreadsheet applications
http://www.bom.gov.au/fwo/IDN60801/IDN60801.95695.axf

JavaScript Object Notation format (JSON) in row-major order
http://www.bom.gov.au/fwo/IDN60801/IDN60801.95695.json